Timeline UpdatesTrip UpdatesNews PostsPvt PostsTravel TipsAdmin PostsConv PostsFollowed PostsChat RequestsBlog PostsPNR Posts

Disclaimer
Search
 
 
Thu Apr 17, 2014 16:32:35 ISTHomeTrainsΣChainsAtlasPNRForumGalleryNewsFAQTripsMembersLoginFeedback
No Recent News for this Train
Other Trains in the News **new
Latest...
.
Fri Nov 22, 2013 (09:02AM)
⇐ Return Journey: Train# 17482

17481/Bilaspur-Tirupati Express

Jul 02 2013 (8:23PM)
Change Departure Station:
Change Arrival Station:
Post a Train Travel TipPost a Train Travel Tip **new
Post a Comment/Question/Picture/VideoPost a Comment/Question/Picture/Video
Pantry/Catering
✕ NO Pantry Car
✓ Catering Avbl
Loco/Rake Reversals
R/Raipur Junction (6); VSKP/Visakhapatnam Junction (8);
RSA - Rake Sharing
Rake/Coach Composition
ENG-SLR-GS-GS-GS-S1-S2-S3-S4-S5-B1-GS-GS-GS-SLR (BSP-R & VSKP-TPTY); ENG-SLR-GS-GS-GS-B1-S5-S4-S3-S2-S1-GS-GS-GS-SLR (R-VSKP)
Loco
Loco Change at BZA frm Electric (WAM 4) to Diesel...
Read more...
(Dual WDP 1 frm BZA shed) and again frm Diesel (dual WDP 1 frm BZA shed) to Electric(WAM4 usually) at RJY and again from Electric(WAM4) to Diesel at VSKP.
News    PNR    Forum    Time-Table    Availability    Fare Chart    Map    Arr/Dep History    Trips    Gallery    ΣChains    X/O    Timeline    
Travel Time: 30h 30m    63 halts    Distance: 1403 km    Avg Speed: 46 km/hr
Type: Mail/Express
Zone: SCR/South Central
Departs @ 10:05 (Avg on time)
Platform# 6
  T   S
Bilaspur Junction/BSP 
Arrives @ 16:35 +1 night (Avg 4m late)
Platform# 4
S  W   
Tirupati Main/TPTY 

63 halts. 202 intermediate Stations between Bilaspur Junction and Tirupati Main

Show ALL intermediate Stations  Show Old Time-Table

#CodeStation NameX/OArrivesAvgDepartsAvgHaltPFDay#KmSpeedElevZoneAddress
1BSP»Bilaspur Junction (8)»  -10:05+0610.075271mSECRBilaspur, Chhattisgarh
2BYTBhatapara (4)X  10:42+1210:43+131m--146.282270mSECRBanjari Road, Chhattisgarh
3TLDTilda (3)  11:02+1311:03+141m--172.244291mSECRBanjari Rd, Chhattisgarh
4RRaipur Junction (6)11:55+712:15+1420m--1110.442297mSECRRaipur, Chhattisgarh
5MSMDMahasamund  13:31+913:32+121m--1164.068301mECoRMahasamund, Chhattisgarh
6BGBRBagbahra  13:59+1414:00+171m--1194.648358mECoRBagbahra, Chhattisgarh
7KRARKhariar Road  14:26+1614:27+241m--1215.658317mECoRJonk, Odisha
8NPDNawapara Road  14:39+2414:40+261m--1227.280344mECoRNuapada District, Odisha
9HSKHarishanker Road  15:02+2815:03+291m--1256.763335mECoRNational Highway 217, Odisha
10KBJKantabanji  15:25+2815:35+2910m--1279.949283mECoRBolangir, Odisha
11TIGTitlagarh JunctionX  16:15+2316:25+2410m--1312.452212mECoRTitlagarh, Odisha
12KSNGKesinga (1)X  16:41+2216:42+241m11326.365183mECoRKesinga, Odisha
13RPRDRupra Road  16:57+2516:58+251m--1342.544233mECoRKalahandi, Odisha
14NRLRNorla Road  17:07+2417:08+261m--1349.258247mECoRKalahandi, Odisha
15AMBAmbodala  17:34+2417:35+251m--1374.271374mECoRState Highway 6, Odisha
16MNGDMuniguda  17:56+2817:57+301m--1399.158335mECoRMuniguda, Odisha
17THVTherubali  18:34+2518:35+281m--1435.122270mECoRRayagada, Odisha
18SPRDSingapuram Road (2)X  19:01+2419:02+271m--1444.543248mECoRJaykaypur, Odisha
19RGDARayagada (3)  19:15+2619:25+2710m--1453.776229mECoRRayagada ph.no 06856-222407, Odisha
20PVPTParvatipuram Town  20:01+3020:02+311m--1499.025121mECoRParvatipuram, Andhra Pradesh
21PVPParvatipuram (3)  20:06+3120:07+321m--1500.780122mECoRParvatipuram, Andhra Pradesh
22VBLBobbili Junction (2)  20:25+3320:27+332m21524.652137mECoRBobbili, Andhra Pradesh
23VZMVizianagaram Junction (5)  21:30+2221:35+245m--1578.86863mECoRVizianagaram ph.no 08922-225510, Andhra Pradesh
24KTVKottavalasa Junction (5)  22:06+3022:07+321m--1613.86458mECoRVizianagaram District, Andhra Pradesh
25SCMSimhachalam (2)  22:24+722:25+81m--1631.9927mECoRVisakhapatnam, Andhra Pradesh
26VSKPVisakhapatnam Junction (8)X23:20+523:40+720m41640.03411mECoRVishakhapatnam 530001, Andhra Pradesh
27DVDDuvvada (4)  00:09+1100:10+131m12656.35346mECoRVishakhapatnam District, Andhra Pradesh
28AKPAnakapalle (3)  00:28+1600:29+171m22672.35930mSCRAnakapalle ph.no . 08924-221698, Andhra Pradesh
29YLMElamanchili (2)  00:53+1500:54+161m--2696.010423mSCRVisakhapatnam District, Andhra Pradesh
30TUNITuni (2)  01:17+2401:18+251m12736.17124mSCRTuni ph.no. 08854-252172, Andhra Pradesh
31ANVAnnavaram (3)X  01:32+2601:33+261m12752.88327mSCREast Godavari District, Andhra Pradesh
32PAPPithapuram (2)X  01:51+3001:52+301m--2777.55622mSCREast Godavari District, Andhra Pradesh
33SLOSamalkot Junction (3)X  02:05+2902:06+291m32789.68418mSCRKakinada ph.no.0884-2328824, Andhra Pradesh
34APTAnaparti (3)X  02:25+3002:26+301m--2816.14521mSCREast Godavari District, Andhra Pradesh
35DWPDwarapudi (3)  02:31+3002:32+311m--2819.93120mSCREast Godavari District, Andhra Pradesh
36RJYRajahmundry (3)X  03:10+2503:25+3015m12839.83623mSCRRajahmundry ph.no. 0883-2420541, Andhra Pradesh
37KVRKovvur (3)  03:38+3203:39+321m32847.64325mSCRWest Godavari, Andhra Pradesh
38NDDNidadavolu Junction (3)  03:59+2904:00+301m22862.05420mSCRNidadavolu jtn ph.no. 08813-210325, Andhra Pradesh
39TNKUTanuku (2)  04:19+3104:20+331m--2879.15312mSCR131, Andhra Pradesh
40ALAttili (1)  04:32+3504:33+341m12889.74214mSCRWest Godavari, Andhra Pradesh
41BVRTBhimavaram Town (2)  05:01+3005:02+311m12909.5488mSCRBhimavaram, Andhra Pradesh
42AKVDAkividu (3)X  05:24+3205:25+351m--2927.2485mSCRCoast Andhra, Andhra Pradesh
43KKLRKaikaluru (2)X  05:46+4205:47+431m--2943.8348mSCRKaikalur, Andhra Pradesh
44GDVGudivada Junction (3)X  06:39+3406:40+381m--2973.13211mSCRKrishna District, Andhra Pradesh
45BZAVijayawada Junction (10)  08:00+2808:20+2920m--21016.35624mSCRVijayawada 520001, Andhra Pradesh
46DIGDuggirala (2)  08:43+3808:44+421m--21037.86516mSCRDuggirala, Andhra Pradesh
47TELTenali Junction (5)  08:53+4408:54+461m321047.56616mSCRTel: 08644-227834, Andhra Pradesh
48NDONidubrolu (3)X  09:14+4709:15+491m--21069.6659mSCRNidubrolu, Andhra Pradesh
49BPPBapatla (3)  09:34+5109:35+541m--21090.17510mSCRBapatla, Andhra Pradesh
50CLXChirala (4)  09:47+5709:48+581m--21105.2528mSCRChirala, Andhra Pradesh
51VTMVetapalem (3)  09:57+5609:58+581m--21113.1688mSCRVetapalem, Andhra Pradesh
52CJMChinnaganjam (3)  10:09+5810:10+581m--21125.5659mSCRChinna Ganjam, Andhra Pradesh
53ANBAmmanabrolu (3)  10:23+5910:24+591m--21139.64516mSCRAmmanabrolu, Andhra Pradesh
54OGLOngole (3)X  10:44+1:0310:45+1:051m321154.56212mSCROngole ph.no . 08592-280202, Andhra Pradesh
55TNRTanguturu (2)  11:03+5911:04+591m--21173.27210mSCRTanguturu, Andhra Pradesh
56SKMSingarayakonda (3)X  11:12+1:0311:13+1:031m321182.86326mSCRSingarayakonda, Andhra Pradesh
57KVZKavali (4)XO  11:49+5911:50+591m221220.57021mSCRKavali, Andhra Pradesh
58BTTRBitragunta (2)  12:04+5112:05+511m221237.07615mSCRBitragunta, Andhra Pradesh
59NLRNellore (4)X  12:32+2412:33+241m321271.32721mSCRNellore, Andhra Pradesh
60GDRGudur Junction (3)X  14:00+1314:05+135m121309.86819mSCRGudur, Andhra Pradesh
61VDDVendodu (2)X  14:22+2114:23+211m--21329.07655mSCRNellore, Andhra Pradesh
62VKIVenkatagiri (3)X  14:36+2214:37+211m221345.56177mSCRNellore District, Andhra Pradesh
63KHTSri Kalahasti (2)  15:01+2715:02+271m121370.03068mSCRChittoor District, Andhra Pradesh
64RURenigunta Junction (5)  15:48+715:50+92m--21393.213113mSCRChittoor District, Andhra Pradesh
65TPTY•Tirupati Main (5)•  16:35+4-421403.1-150mSCRChittoor Distt, Andhra Pradesh
Scroll to Top
Scroll to Bottom